createdAt,value
2018-11-14T00:00:28.221Z,102219.22
2018-11-14T00:03:32.452Z,102225.83
2018-11-14T00:06:36.679Z,102229.34
2018-11-14T00:09:40.977Z,102231.36
2018-11-14T00:12:45.240Z,102234.64
2018-11-14T00:15:49.501Z,102240.45
2018-11-14T00:18:53.757Z,102247.57
2018-11-14T00:21:57.989Z,102250.98
2018-11-14T00:25:02.232Z,102252.69
2018-11-14T00:28:06.478Z,102260.97
2018-11-14T00:31:10.722Z,102258.38
2018-11-14T00:34:14.951Z,102264.90
2018-11-14T00:37:19.197Z,102272.39
2018-11-14T00:40:23.442Z,102283.17
2018-11-14T00:43:27.693Z,102278.24
2018-11-14T00:46:31.922Z,102284.41
2018-11-14T00:49:36.230Z,102287.06
2018-11-14T00:52:40.536Z,102290.67
2018-11-14T00:55:44.776Z,102289.38
2018-11-14T00:58:49.281Z,102290.58
2018-11-14T01:01:53.519Z,102289.12
2018-11-14T01:04:57.794Z,102296.52
2018-11-14T01:08:02.021Z,102295.82
2018-11-14T01:11:06.346Z,102293.88
2018-11-14T01:14:11.277Z,102298.94
2018-11-14T01:17:15.570Z,102308.74
2018-11-14T01:20:21.041Z,102311.12
2018-11-14T01:23:25.266Z,102320.13
2018-11-14T01:26:29.487Z,102317.73
2018-11-14T01:29:33.720Z,102310.20
2018-11-14T01:32:37.972Z,102310.73
2018-11-14T01:35:42.292Z,102310.61
2018-11-14T01:38:46.498Z,102310.87
2018-11-14T01:41:50.757Z,102316.81
2018-11-14T01:45:05.761Z,102325.77
2018-11-14T01:48:10.018Z,102322.77
2018-11-14T01:51:14.258Z,102319.03
2018-11-14T01:54:18.484Z,102328.48
2018-11-14T01:57:22.713Z,102326.66
2018-11-14T02:00:26.952Z,102326.94
2018-11-14T02:03:31.197Z,102328.99
2018-11-14T02:06:35.428Z,102326.43
2018-11-14T02:09:39.672Z,102327.83
2018-11-14T02:12:44.324Z,102336.46
2018-11-14T02:15:48.589Z,102332.63
2018-11-14T02:18:52.837Z,102334.75
2018-11-14T02:21:57.071Z,102334.33
2018-11-14T02:25:01.337Z,102338.79
2018-11-14T02:28:05.853Z,102336.28
2018-11-14T02:31:10.084Z,102337.97
2018-11-14T02:34:14.342Z,102331.25
2018-11-14T02:37:18.607Z,102337.20
2018-11-14T02:40:23.496Z,102332.31
2018-11-14T02:43:27.733Z,102336.82
2018-11-14T02:46:31.969Z,102335.53
2018-11-14T02:49:36.210Z,102330.84
2018-11-14T02:52:40.451Z,102331.28
2018-11-14T02:55:44.689Z,102329.77
2018-11-14T02:58:48.985Z,102327.30
2018-11-14T03:01:53.237Z,102332.42
2018-11-14T03:04:57.453Z,102332.52
2018-11-14T03:08:01.698Z,102331.77
2018-11-14T03:11:06.704Z,102340.27
2018-11-14T03:14:10.943Z,102343.84
2018-11-14T03:17:15.268Z,102343.56
2018-11-14T03:20:20.679Z,102334.97
2018-11-14T03:23:24.892Z,102333.97
2018-11-14T03:26:29.116Z,102322.48
2018-11-14T03:29:33.351Z,102337.12
2018-11-14T03:32:37.592Z,102345.75
2018-11-14T03:35:47.125Z,102343.40
2018-11-14T03:38:51.359Z,102352.24
2018-11-14T03:41:55.631Z,102354.95
2018-11-14T03:44:59.852Z,102354.45
2018-11-14T03:48:04.069Z,102354.63
2018-11-14T03:51:08.283Z,102364.80
2018-11-14T03:54:12.510Z,102369.22
2018-11-14T03:57:16.729Z,102369.55
2018-11-14T04:00:20.944Z,102370.58
2018-11-14T04:03:25.196Z,102372.31
2018-11-14T04:06:29.409Z,102365.53
2018-11-14T04:09:33.853Z,102369.27
2018-11-14T04:12:38.235Z,102371.83
2018-11-14T04:15:42.472Z,102368.62
2018-11-14T04:18:46.700Z,102362.69
2018-11-14T04:21:50.933Z,102363.04
2018-11-14T04:24:55.172Z,102364.75
2018-11-14T04:27:59.410Z,102369.48
2018-11-14T04:31:03.667Z,102357.96
2018-11-14T04:34:07.905Z,102359.16
2018-11-14T04:37:12.159Z,102368.33
2018-11-14T04:40:19.148Z,102374.77
2018-11-14T04:43:23.377Z,102376.64
2018-11-14T04:46:27.626Z,102389.53
2018-11-14T04:49:31.919Z,102393.92
2018-11-14T04:52:36.159Z,102402.73
2018-11-14T04:55:40.412Z,102402.22
2018-11-14T04:58:44.689Z,102398.16
2018-11-14T05:01:48.925Z,102398.17
2018-11-14T05:04:53.162Z,102395.31
2018-11-14T05:07:57.404Z,102393.42
2018-11-14T05:11:01.633Z,102398.69
2018-11-14T05:14:06.606Z,102401.56
2018-11-14T05:17:10.831Z,102395.12
2018-11-14T05:20:16.240Z,102397.48
2018-11-14T05:23:20.479Z,102408.63
2018-11-14T05:26:24.710Z,102421.31
2018-11-14T05:29:28.993Z,102428.44
2018-11-14T05:32:33.212Z,102424.38
2018-11-14T05:35:37.453Z,102426.56
2018-11-14T05:38:41.690Z,102432.17
2018-11-14T05:41:45.939Z,102436.72
2018-11-14T05:44:50.177Z,102439.44
2018-11-14T05:47:54.487Z,102439.30
2018-11-14T05:50:58.704Z,102437.94
2018-11-14T05:54:02.938Z,102439.98
2018-11-14T05:57:07.353Z,102430.50
2018-11-14T06:00:32.131Z,102432.03
2018-11-14T06:03:37.026Z,102431.00
2018-11-14T06:06:41.413Z,102438.12
2018-11-14T06:09:45.652Z,102438.80
2018-11-14T06:12:49.856Z,102448.95
2018-11-14T06:15:54.106Z,102453.01
2018-11-14T06:18:58.339Z,102460.97
2018-11-14T06:22:02.611Z,102459.11
2018-11-14T06:25:19.959Z,102457.75
2018-11-14T06:28:24.211Z,102455.86
2018-11-14T06:31:28.433Z,102462.62
2018-11-14T06:34:32.668Z,102465.84
2018-11-14T06:37:37.258Z,102474.45
2018-11-14T06:40:41.499Z,102478.66
2018-11-14T06:43:45.745Z,102486.76
2018-11-14T06:46:49.964Z,102489.09
2018-11-14T06:49:54.429Z,102485.86
2018-11-14T06:53:00.144Z,102488.53
2018-11-14T06:56:04.421Z,102494.11
2018-11-14T06:59:08.704Z,102497.70
2018-11-14T07:02:12.899Z,102495.15
2018-11-14T07:05:18.169Z,102502.96
2018-11-14T07:08:22.347Z,102505.50
2018-11-14T07:11:26.582Z,102507.72
2018-11-14T07:14:30.998Z,102503.78
2018-11-14T07:17:35.261Z,102516.70
2018-11-14T07:20:40.899Z,102517.56
2018-11-14T07:23:45.172Z,102513.82
2018-11-14T07:26:49.401Z,102512.94
2018-11-14T07:29:53.922Z,102506.16
2018-11-14T07:33:01.346Z,102505.97
2018-11-14T07:36:05.617Z,102510.40
2018-11-14T07:39:10.420Z,102516.50
2018-11-14T07:42:14.661Z,102509.05
2018-11-14T07:45:18.895Z,102520.88
2018-11-14T07:48:23.166Z,102521.41
2018-11-14T07:51:27.423Z,102531.73
2018-11-14T07:54:31.687Z,102529.73
2018-11-14T07:57:36.218Z,102535.69
2018-11-14T08:00:40.481Z,102530.91
2018-11-14T08:03:45.053Z,102544.30
2018-11-14T08:06:49.291Z,102546.34
2018-11-14T08:09:53.538Z,102542.12
2018-11-14T08:12:57.941Z,102548.40
2018-11-14T08:16:02.646Z,102554.33
2018-11-14T08:19:06.899Z,102548.73
2018-11-14T08:22:11.167Z,102558.23
2018-11-14T08:25:15.443Z,102560.59
2018-11-14T08:28:19.690Z,102560.27
2018-11-14T08:31:23.924Z,102557.41
2018-11-14T08:34:28.158Z,102556.37
2018-11-14T08:37:32.405Z,102565.87
2018-11-14T08:40:36.665Z,102556.88
2018-11-14T08:43:40.913Z,102562.13
2018-11-14T08:46:45.199Z,102562.30
2018-11-14T08:49:49.463Z,102567.73
2018-11-14T08:52:53.743Z,102572.32
2018-11-14T08:55:57.983Z,102565.71
2018-11-14T08:59:02.213Z,102572.52
2018-11-14T09:02:06.929Z,102570.15
2018-11-14T09:05:11.365Z,102573.89
2018-11-14T09:08:15.603Z,102571.86
2018-11-14T09:11:19.974Z,102580.84
2018-11-14T09:14:24.223Z,102582.22
2018-11-14T09:17:28.386Z,102593.93
2018-11-14T09:20:32.620Z,102598.00
2018-11-14T09:23:36.864Z,102607.48
2018-11-14T09:26:41.098Z,102617.34
2018-11-14T09:29:45.323Z,102618.16
2018-11-14T09:32:49.563Z,102625.61
2018-11-14T09:35:53.809Z,102621.37
2018-11-14T09:38:58.052Z,102630.87
2018-11-14T09:42:02.305Z,102623.56
2018-11-14T09:45:09.978Z,102628.99
2018-11-14T09:48:14.220Z,102626.45
2018-11-14T09:51:18.544Z,102622.56
2018-11-14T09:54:22.959Z,102622.74
2018-11-14T09:57:27.189Z,102620.72
2018-11-14T10:00:34.708Z,102613.75
2018-11-14T10:03:38.970Z,102616.81
2018-11-14T10:06:43.817Z,102613.92
2018-11-14T10:09:48.069Z,102623.44
2018-11-14T10:12:52.292Z,102617.69
2018-11-14T10:15:56.543Z,102622.77
2018-11-14T10:19:00.803Z,102628.00
2018-11-14T10:22:05.081Z,102621.05
2018-11-14T10:25:09.710Z,102620.55
2018-11-14T10:28:13.952Z,102627.69
2018-11-14T10:31:18.173Z,102623.27
2018-11-14T10:34:22.417Z,102630.23
2018-11-14T10:37:26.642Z,102620.20
2018-11-14T10:40:30.877Z,102626.50
2018-11-14T10:43:35.105Z,102620.55
2018-11-14T10:46:39.331Z,102616.30
2018-11-14T10:49:43.620Z,102615.64
2018-11-14T10:52:47.844Z,102612.94
2018-11-14T10:55:52.096Z,102610.56
2018-11-14T10:58:56.352Z,102607.00
2018-11-14T11:02:05.874Z,102607.00
2018-11-14T11:05:15.430Z,102608.02
2018-11-14T11:08:29.785Z,102608.53
2018-11-14T11:12:36.729Z,102606.47
2018-11-14T11:15:46.233Z,102601.23
2018-11-14T11:18:50.524Z,102601.73
2018-11-14T11:21:54.785Z,102602.77
2018-11-14T11:24:59.056Z,102605.28
2018-11-14T11:28:03.295Z,102605.64
2018-11-14T11:31:07.570Z,102600.39
2018-11-14T11:34:12.335Z,102598.02
2018-11-14T11:37:16.590Z,102606.84
2018-11-14T11:40:20.819Z,102605.31
2018-11-14T11:43:25.062Z,102611.39
2018-11-14T11:46:29.351Z,102611.56
2018-11-14T11:49:33.573Z,102604.98
2018-11-14T11:52:37.859Z,102604.78
2018-11-14T11:55:42.104Z,102604.98
2018-11-14T11:58:46.446Z,102600.89
2018-11-14T12:01:50.691Z,102604.98
2018-11-14T12:04:54.974Z,102598.68
2018-11-14T12:07:59.220Z,102595.47
2018-11-14T12:11:03.500Z,102600.22
2018-11-14T12:14:08.282Z,102591.05
2018-11-14T12:17:12.604Z,102590.72
2018-11-14T12:20:16.819Z,102592.06
2018-11-14T12:23:21.131Z,102586.84
2018-11-14T12:26:25.391Z,102579.71
2018-11-14T12:29:29.620Z,102583.59
2018-11-14T12:32:33.860Z,102587.16
2018-11-14T12:35:38.159Z,102582.06
2018-11-14T12:38:42.422Z,102591.22
2018-11-14T12:41:46.657Z,102591.22
2018-11-14T12:44:50.944Z,102589.53
2018-11-14T12:47:55.185Z,102591.55
2018-11-14T12:50:59.426Z,102590.20
2018-11-14T12:54:03.658Z,102580.03
2018-11-14T12:57:07.888Z,102573.44
2018-11-14T13:00:14.844Z,102579.88
2018-11-14T13:03:19.085Z,102574.45
2018-11-14T13:06:23.322Z,102570.88
2018-11-14T13:09:27.545Z,102576.14
2018-11-14T13:12:31.799Z,102573.23
2018-11-14T13:15:36.048Z,102569.87
2018-11-14T13:18:40.288Z,102566.13
2018-11-14T13:21:44.574Z,102563.39
2018-11-14T13:24:48.829Z,102575.78
2018-11-14T13:27:53.073Z,102576.47
2018-11-14T13:30:57.374Z,102572.87
2018-11-14T13:34:01.629Z,102581.52
2018-11-14T13:37:05.891Z,102589.16
2018-11-14T13:40:10.674Z,102580.02
2018-11-14T13:43:14.961Z,102575.27
2018-11-14T13:46:19.182Z,102576.77
2018-11-14T13:49:23.698Z,102569.48
2018-11-14T13:52:27.804Z,102577.62
2018-11-14T13:55:32.053Z,102572.03
2018-11-14T13:58:36.313Z,102568.81
2018-11-14T14:01:40.578Z,102568.64
2018-11-14T14:04:44.834Z,102563.54
2018-11-14T14:07:49.079Z,102552.69
2018-11-14T14:10:53.325Z,102560.66
2018-11-14T14:14:02.882Z,102552.52
2018-11-14T14:17:07.389Z,102553.70
2018-11-14T14:20:13.476Z,102556.23
2018-11-14T14:23:17.734Z,102557.06
2018-11-14T14:26:21.989Z,102559.63
2018-11-14T14:29:26.264Z,102556.89
2018-11-14T14:32:30.599Z,102548.75
2018-11-14T14:35:34.840Z,102546.01
2018-11-14T14:38:39.110Z,102545.34
2018-11-14T14:41:43.461Z,102546.52
2018-11-14T14:44:47.714Z,102544.13
2018-11-14T14:47:51.972Z,102550.09
2018-11-14T14:50:56.228Z,102546.19
2018-11-14T14:54:00.504Z,102541.94
2018-11-14T14:57:04.783Z,102547.34
2018-11-14T15:00:13.977Z,102550.38
2018-11-14T15:03:19.893Z,102544.09
2018-11-14T15:06:24.177Z,102545.28
2018-11-14T15:09:28.456Z,102549.35
2018-11-14T15:12:32.687Z,102549.35
2018-11-14T15:15:37.400Z,102553.42
2018-11-14T15:18:41.643Z,102551.39
2018-11-14T15:21:45.925Z,102547.31
2018-11-14T15:24:50.182Z,102552.42
2018-11-14T15:27:54.450Z,102548.52
2018-11-14T15:30:58.704Z,102547.16
2018-11-14T15:34:02.994Z,102537.84
2018-11-14T15:37:07.226Z,102534.63
2018-11-14T15:40:14.336Z,102549.02
2018-11-14T15:43:18.551Z,102546.16
2018-11-14T15:46:22.826Z,102544.30
2018-11-14T15:49:27.059Z,102542.59
2018-11-14T15:52:31.318Z,102544.48
2018-11-14T15:55:35.576Z,102540.73
2018-11-14T15:58:39.826Z,102538.87
2018-11-14T16:01:44.074Z,102544.30
2018-11-14T16:04:48.329Z,102543.95
2018-11-14T16:07:54.024Z,102541.77
2018-11-14T16:10:58.300Z,102543.95
2018-11-14T16:14:02.553Z,102541.77
2018-11-14T16:17:06.819Z,102543.80
2018-11-14T16:20:12.830Z,102545.66
2018-11-14T16:23:17.111Z,102549.73
2018-11-14T16:26:21.326Z,102546.34
2018-11-14T16:29:25.583Z,102552.27
2018-11-14T16:32:30.100Z,102547.02
2018-11-14T16:35:34.444Z,102541.61
2018-11-14T16:38:38.668Z,102541.94
2018-11-14T16:41:42.927Z,102548.73
2018-11-14T16:44:47.254Z,102541.94
2018-11-14T16:47:51.533Z,102548.40
2018-11-14T16:50:55.760Z,102546.03
2018-11-14T16:54:00.025Z,102548.07
2018-11-14T16:57:04.381Z,102550.10
2018-11-14T17:00:14.405Z,102554.17
2018-11-14T17:03:18.657Z,102562.33
2018-11-14T17:06:22.885Z,102561.64
2018-11-14T17:09:27.131Z,102566.03
2018-11-14T17:12:31.356Z,102568.10
2018-11-14T17:15:35.614Z,102577.42
2018-11-14T17:18:39.850Z,102574.05
2018-11-14T17:21:44.118Z,102567.45
2018-11-14T17:24:48.365Z,102577.09
2018-11-14T17:27:52.624Z,102576.77
2018-11-14T17:30:56.854Z,102574.05
2018-11-14T17:34:01.088Z,102574.88
2018-11-14T17:37:05.477Z,102571.52
2018-11-14T17:40:13.415Z,102574.55
2018-11-14T17:43:17.648Z,102573.38
2018-11-14T17:46:21.901Z,102576.41
2018-11-14T17:49:26.191Z,102576.41
2018-11-14T17:52:30.499Z,102573.05
2018-11-14T17:55:34.894Z,102572.69
2018-11-14T17:58:39.024Z,102568.98
2018-11-14T18:01:43.292Z,102573.22
2018-11-14T18:04:47.557Z,102569.15
2018-11-14T18:07:52.565Z,102567.27
2018-11-14T18:10:56.779Z,102558.62
2018-11-14T18:14:01.021Z,102564.55
2018-11-14T18:17:05.466Z,102562.36
2018-11-14T18:20:13.296Z,102564.91
2018-11-14T18:23:17.522Z,102560.30
2018-11-14T18:26:21.785Z,102558.12
2018-11-14T18:29:26.035Z,102565.08
2018-11-14T18:32:30.264Z,102564.22
2018-11-14T18:35:34.526Z,102565.41
2018-11-14T18:38:38.784Z,102566.44
2018-11-14T18:41:43.992Z,102568.44
2018-11-14T18:44:48.238Z,102558.95
2018-11-14T18:47:52.805Z,102557.41
2018-11-14T18:50:57.024Z,102564.20
2018-11-14T18:54:01.286Z,102565.23
2018-11-14T18:57:06.177Z,102560.83
2018-11-14T19:00:15.482Z,102566.27
2018-11-14T19:03:19.709Z,102562.02
2018-11-14T19:06:23.953Z,102569.63
2018-11-14T19:09:28.191Z,102560.83
2018-11-14T19:12:32.443Z,102567.94
2018-11-14T19:15:37.620Z,102567.45
2018-11-14T19:18:41.917Z,102566.59
2018-11-14T19:21:46.124Z,102561.33
2018-11-14T19:24:50.353Z,102562.36
2018-11-14T19:27:54.608Z,102559.98
2018-11-14T19:30:58.849Z,102557.59
2018-11-14T19:34:03.094Z,102556.58
2018-11-14T19:37:07.333Z,102556.58
2018-11-14T19:40:15.425Z,102558.30
2018-11-14T19:43:19.699Z,102559.48
2018-11-14T19:46:23.968Z,102567.09
2018-11-14T19:49:28.241Z,102576.27
2018-11-14T19:52:32.422Z,102582.55
2018-11-14T19:55:37.200Z,102581.36
2018-11-14T19:58:41.313Z,102577.61
2018-11-14T20:01:45.559Z,102577.61
2018-11-14T20:04:49.994Z,102575.94
2018-11-14T20:07:54.314Z,102571.86
2018-11-14T20:10:58.568Z,102573.36
2018-11-14T20:14:03.160Z,102573.89
2018-11-14T20:17:07.411Z,102568.81
2018-11-14T20:20:13.672Z,102581.38
2018-11-14T20:23:17.936Z,102581.38
2018-11-14T20:26:22.270Z,102586.44
2018-11-14T20:29:26.454Z,102576.62
2018-11-14T20:32:30.705Z,102569.52
2018-11-14T20:35:34.936Z,102570.19
2018-11-14T20:38:39.175Z,102567.97
2018-11-14T20:41:43.417Z,102556.80
2018-11-14T20:44:47.778Z,102556.11
2018-11-14T20:47:52.022Z,102552.89
2018-11-14T20:50:56.268Z,102551.87
2018-11-14T20:54:00.534Z,102552.22
2018-11-14T20:57:04.808Z,102557.65
2018-11-14T21:00:17.620Z,102560.00
2018-11-14T21:03:21.947Z,102553.91
2018-11-14T21:06:26.133Z,102559.33
2018-11-14T21:09:30.428Z,102558.32
2018-11-14T21:12:35.194Z,102563.90
2018-11-14T21:15:40.253Z,102568.50
2018-11-14T21:18:44.519Z,102565.44
2018-11-14T21:21:48.874Z,102561.38
2018-11-14T21:24:53.179Z,102563.91
2018-11-14T21:27:57.753Z,102562.73
2018-11-14T21:31:02.025Z,102565.77
2018-11-14T21:34:06.317Z,102560.84
2018-11-14T21:37:10.585Z,102569.84
2018-11-14T21:40:14.910Z,102572.70
2018-11-14T21:43:19.226Z,102571.02
2018-11-14T21:46:23.421Z,102568.63
2018-11-14T21:49:29.800Z,102572.20
2018-11-14T21:52:34.089Z,102568.63
2018-11-14T21:55:38.385Z,102575.09
2018-11-14T21:58:42.638Z,102573.41
2018-11-14T22:01:46.889Z,102580.86
2018-11-14T22:04:51.167Z,102579.53
2018-11-14T22:07:55.376Z,102582.37
2018-11-14T22:10:59.626Z,102589.18
2018-11-14T22:14:03.964Z,102589.68
2018-11-14T22:17:08.227Z,102584.60
2018-11-14T22:20:14.086Z,102598.33
2018-11-14T22:23:18.316Z,102600.56
2018-11-14T22:26:22.567Z,102601.41
2018-11-14T22:29:26.776Z,102604.46
2018-11-14T22:32:31.056Z,102601.92
2018-11-14T22:35:35.291Z,102605.47
2018-11-14T22:38:39.605Z,102612.09
2018-11-14T22:41:43.861Z,102605.80
2018-11-14T22:44:48.108Z,102609.21
2018-11-14T22:47:52.342Z,102607.34
2018-11-14T22:50:56.581Z,102609.36
2018-11-14T22:54:00.817Z,102603.11
2018-11-14T22:57:05.759Z,102600.04
2018-11-14T23:00:20.288Z,102599.05
2018-11-14T23:03:24.522Z,102604.97
2018-11-14T23:06:28.765Z,102609.03
2018-11-14T23:09:33.000Z,102608.17
2018-11-14T23:12:37.242Z,102604.11
2018-11-14T23:15:41.595Z,102617.48
2018-11-14T23:18:45.760Z,102613.78
2018-11-14T23:22:04.506Z,102618.51
2018-11-14T23:25:09.245Z,102615.30
2018-11-14T23:28:13.495Z,102613.27
2018-11-14T23:31:17.765Z,102618.86
2018-11-14T23:34:22.027Z,102616.64
2018-11-14T23:37:26.310Z,102609.69
2018-11-14T23:40:30.757Z,102613.44
2018-11-14T23:43:35.065Z,102615.28
2018-11-14T23:46:39.358Z,102624.45
2018-11-14T23:49:43.581Z,102625.12
2018-11-14T23:52:48.873Z,102619.04
2018-11-14T23:55:53.133Z,102617.69
2018-11-14T23:58:57.397Z,102616.66
